Time;durP1;ratioP1;P1;durP2;ratioP2;P2;SDS_P1;SDS_P2;PMS_P1;PMS_P2;Temp;Humidity;BMP_temperature;BMP_pressure;BME280_temperature;BME280_humidity;BME280_pressure;Samples;Min_cycle;Max_cycle;Signal;HPM_P1;HPM_P2
2022/06/05 00:05:26;;;;;;;89.33;82.70;;;;;;;14.27;100.00;101859.36;2041685;69;32546;-74
2022/06/05 00:08:02;;;;;;;82.77;76.67;;;;;;;14.14;100.00;101859.41;1984832;72;26228;-75
2022/06/05 00:13:45;;;;;;;83.27;76.97;;;;;;;14.14;100.00;101856.05;2052971;69;32637;-75
2022/06/05 00:16:18;;;;;;;81.43;75.13;;;;;;;14.10;100.00;101852.71;1939054;73;26274;-75
2022/06/05 00:18:49;;;;;;;83.57;77.23;;;;;;;14.01;100.00;101850.22;2011084;70;26223;-74
2022/06/05 00:21:20;;;;;;;81.47;75.13;;;;;;;13.94;100.00;101842.71;2012615;70;26214;-73
2022/06/05 00:23:52;;;;;;;84.00;77.83;;;;;;;13.85;100.00;101837.42;2012117;70;26658;-73
2022/06/05 00:26:28;;;;;;;83.43;77.07;;;;;;;13.99;100.00;101832.92;2019451;70;26215;-74
2022/06/05 00:29:05;;;;;;;88.80;82.53;;;;;;;13.95;100.00;101835.98;2016696;71;26267;-74
2022/06/05 00:31:41;;;;;;;84.07;77.63;;;;;;;13.88;100.00;101832.11;2013661;70;26218;-74
2022/06/05 00:34:12;;;;;;;83.90;77.73;;;;;;;14.00;100.00;101828.43;2008938;70;26734;-74
2022/06/05 00:36:54;;;;;;;86.13;79.80;;;;;;;13.98;100.00;101819.52;2027092;70;26757;-75
2022/06/05 00:39:30;;;;;;;82.73;76.50;;;;;;;13.96;100.00;101819.50;2016172;70;26763;-74
2022/06/05 00:42:03;;;;;;;80.47;74.23;;;;;;;13.79;100.00;101817.59;2015348;70;26202;-75
2022/06/05 00:44:36;;;;;;;86.63;80.33;;;;;;;13.78;100.00;101819.55;1937625;73;26208;-74
2022/06/05 00:47:08;;;;;;;84.17;77.87;;;;;;;13.87;100.00;101824.00;1939039;73;26181;-74
2022/06/05 00:49:42;;;;;;;84.80;78.57;;;;;;;13.92;100.00;101823.98;1935951;73;26208;-75
2022/06/05 00:52:14;;;;;;;86.37;79.87;;;;;;;13.92;100.00;101824.83;2018120;70;26233;-74
2022/06/05 00:54:44;;;;;;;86.40;80.00;;;;;;;13.73;100.00;101824.33;2015828;70;26254;-75
2022/06/05 00:57:16;;;;;;;86.37;79.87;;;;;;;13.75;100.00;101829.06;2008766;70;26286;-75
2022/06/05 00:59:49;;;;;;;84.33;77.93;;;;;;;13.71;100.00;101822.37;2018428;70;26222;-74
2022/06/05 01:02:19;;;;;;;84.30;78.10;;;;;;;13.75;100.00;101821.52;2016160;70;26338;-74
2022/06/05 01:04:52;;;;;;;85.60;79.00;;;;;;;13.65;100.00;101811.20;2016180;70;26788;-73
2022/06/05 01:07:23;;;;;;;82.33;75.93;;;;;;;13.58;100.00;101812.63;1993423;70;26221;-74
2022/06/05 01:09:54;;;;;;;80.03;73.83;;;;;;;13.63;100.00;101804.24;1975053;72;26652;-74
2022/06/05 01:15:38;;;;;;;84.00;77.70;;;;;;;13.47;100.00;101783.06;2040048;69;32674;-74
2022/06/05 01:18:12;;;;;;;86.67;80.40;;;;;;;13.48;100.00;101796.72;2029769;71;26150;-75
2022/06/05 01:20:46;;;;;;;85.87;79.03;;;;;;;13.44;100.00;101793.37;2014499;70;26681;-75
2022/06/05 01:26:39;;;;;;;84.23;77.93;;;;;;;13.46;100.00;101777.20;2051880;69;32700;-76
2022/06/05 01:29:12;;;;;;;82.87;76.20;;;;;;;13.45;100.00;101781.94;1999648;70;26299;-75
2022/06/05 01:31:46;;;;;;;80.83;74.30;;;;;;;13.34;100.00;101780.30;2013365;70;26649;-75
2022/06/05 01:34:23;;;;;;;80.50;74.20;;;;;;;13.32;100.00;101774.14;2014417;70;26195;-74
2022/06/05 01:36:57;;;;;;;81.50;75.27;;;;;;;13.27;100.00;101770.52;1930783;73;26204;-73
2022/06/05 01:39:31;;;;;;;82.63;76.10;;;;;;;13.32;100.00;101769.96;2016719;71;26637;-74
2022/06/05 01:45:13;;;;;;;83.50;77.00;;;;;;;13.38;100.00;101762.42;2052991;69;32670;-76
2022/06/05 01:47:46;;;;;;;84.43;78.23;;;;;;;13.26;100.00;101773.89;1932562;73;26722;-76
2022/06/05 01:50:19;;;;;;;84.83;78.40;;;;;;;13.37;100.00;101758.80;1945392;73;26265;-75
2022/06/05 01:52:52;;;;;;;82.73;76.43;;;;;;;13.40;100.00;101754.03;1970221;72;26687;-75
2022/06/05 01:55:27;;;;;;;85.27;78.73;;;;;;;13.36;100.00;101757.11;1937801;73;26706;-75
2022/06/05 01:58:00;;;;;;;81.97;75.87;;;;;;;13.15;100.00;101752.13;1937801;73;26200;-75
2022/06/05 02:00:31;;;;;;;84.77;78.27;;;;;;;13.32;100.00;101756.01;1937708;74;26693;-75
2022/06/05 02:06:11;;;;;;;84.73;78.20;;;;;;;13.11;100.00;101741.25;2052053;69;32594;-76
2022/06/05 02:11:50;;;;;;;82.40;75.80;;;;;;;13.22;100.00;101748.48;2044331;69;33204;-74
2022/06/05 02:14:20;;;;;;;82.97;76.47;;;;;;;13.15;100.00;101754.91;2013753;71;26174;-74
2022/06/05 02:16:51;;;;;;;80.47;74.00;;;;;;;13.15;100.00;101740.12;1934280;73;26227;-75
2022/06/05 02:19:23;;;;;;;83.60;76.90;;;;;;;13.35;100.00;101727.53;1943852;73;26240;-74
2022/06/05 02:21:56;;;;;;;82.80;76.13;;;;;;;13.22;100.00;101725.35;1965492;72;26215;-74
2022/06/05 02:24:27;;;;;;;79.53;73.00;;;;;;;13.13;100.00;101725.64;1935235;73;26212;-74
2022/06/05 02:27:00;;;;;;;79.00;72.67;;;;;;;13.04;100.00;101731.47;1941696;73;26685;-74
2022/06/05 02:29:32;;;;;;;79.23;72.47;;;;;;;13.18;100.00;101732.02;1969600;72;26280;-74
2022/06/05 02:32:12;;;;;;;75.50;69.03;;;;;;;13.02;100.00;101721.98;1937828;74;26227;-75
2022/06/05 02:34:47;;;;;;;77.03;70.13;;;;;;;13.02;100.00;101717.80;1930286;73;26643;-75
2022/06/05 02:40:31;;;;;;;76.80;70.50;;;;;;;13.03;100.00;101726.45;2037690;69;32645;-76
2022/06/05 02:43:06;;;;;;;79.57;73.07;;;;;;;13.18;100.00;101729.80;2009202;70;26267;-75
2022/06/05 02:45:43;;;;;;;80.67;74.03;;;;;;;13.30;100.00;101723.38;2018472;70;26282;-75
2022/06/05 02:48:19;;;;;;;76.27;69.77;;;;;;;13.12;100.00;101722.56;2016587;70;26369;-75
2022/06/05 02:50:56;;;;;;;77.77;71.17;;;;;;;13.25;100.00;101712.22;2010121;70;26705;-75
2022/06/05 02:56:34;;;;;;;82.53;75.70;;;;;;;13.21;100.00;101687.41;2045320;69;32593;-75
2022/06/05 02:59:06;;;;;;;81.40;74.43;;;;;;;13.18;100.00;101687.94;1931568;73;26340;-75
2022/06/05 03:04:24;;;;;;;81.27;74.57;;;;;;;13.28;100.00;101684.30;2011350;70;26211;-75
2022/06/05 03:06:54;;;;;;;82.33;75.63;;;;;;;13.12;100.00;101686.30;2002453;70;26277;-75
2022/06/05 03:09:25;;;;;;;81.43;74.87;;;;;;;13.06;100.00;101681.25;1982155;72;26204;-74
2022/06/05 03:11:55;;;;;;;79.30;72.73;;;;;;;13.08;100.00;101676.23;1976796;72;26192;-75
2022/06/05 03:14:25;;;;;;;81.30;74.30;;;;;;;13.16;100.00;101678.48;1987564;72;26278;-75
2022/06/05 03:16:55;;;;;;;79.80;73.40;;;;;;;13.08;100.00;101672.05;1979629;72;26672;-75
2022/06/05 03:19:28;;;;;;;84.77;77.87;;;;;;;13.00;100.00;101667.05;1987032;72;26207;-75
2022/06/05 03:21:59;;;;;;;84.70;77.80;;;;;;;12.97;100.00;101663.41;1978935;72;26209;-74
2022/06/05 03:24:29;;;;;;;85.00;77.80;;;;;;;13.03;100.00;101658.11;1974446;72;26718;-75
2022/06/05 03:27:01;;;;;;;82.10;75.30;;;;;;;12.95;100.00;101648.09;1980622;72;26263;-75
2022/06/05 03:29:31;;;;;;;83.07;76.33;;;;;;;13.10;100.00;101650.83;1980270;72;26242;-75
2022/06/05 03:32:01;;;;;;;83.17;76.23;;;;;;;12.94;100.00;101643.63;1968650;72;26305;-75
2022/06/05 03:34:32;;;;;;;87.20;80.10;;;;;;;12.95;100.00;101648.09;1984428;72;26286;-75
2022/06/05 03:37:03;;;;;;;84.93;77.63;;;;;;;12.99;100.00;101654.22;1973209;72;26323;-75
2022/06/05 03:39:34;;;;;;;83.77;76.73;;;;;;;13.00;100.00;101656.45;1977614;72;26712;-75
2022/06/05 03:42:06;;;;;;;81.17;74.27;;;;;;;12.86;100.00;101658.98;1986245;72;26274;-73
2022/06/05 03:44:39;;;;;;;82.87;75.77;;;;;;;12.98;100.00;101669.83;1980343;72;26619;-74
2022/06/05 03:47:11;;;;;;;85.13;77.77;;;;;;;12.90;100.00;101680.16;1972085;72;26814;-73
2022/06/05 03:49:42;;;;;;;87.00;79.50;;;;;;;13.04;100.00;101680.70;1977784;72;26629;-74
2022/06/05 03:52:13;;;;;;;88.33;80.30;;;;;;;13.14;100.00;101667.31;1979813;72;26958;-74
2022/06/05 03:54:43;;;;;;;93.83;85.87;;;;;;;13.15;100.00;101671.22;1980272;71;26212;-74
2022/06/05 03:57:13;;;;;;;91.40;83.77;;;;;;;12.97;100.00;101682.93;1980273;72;26217;-74
2022/06/05 03:59:44;;;;;;;89.87;82.53;;;;;;;12.97;100.00;101687.67;1980249;72;26194;-74
2022/06/05 04:05:22;;;;;;;99.50;90.23;;;;;;;13.07;100.00;101677.34;2043669;69;32679;-76
2022/06/05 04:07:53;;;;;;;102.77;94.13;;;;;;;13.06;100.00;101669.25;1987550;71;26229;-75
2022/06/05 04:10:23;;;;;;;105.17;96.67;;;;;;;14.55;100.00;101637.25;1977184;72;26602;-75
2022/06/05 04:12:53;;;;;;;103.47;95.07;;;;;;;15.56;100.00;101629.77;1980373;72;26233;-75
2022/06/05 04:15:27;;;;;;;104.87;96.00;;;;;;;13.41;100.00;101639.89;1980467;72;26177;-75
2022/06/05 04:18:00;;;;;;;98.90;91.07;;;;;;;13.21;100.00;101638.02;1968525;72;26266;-75
2022/06/05 04:20:30;;;;;;;98.20;90.20;;;;;;;13.09;100.00;101649.19;1982694;72;26286;-75
2022/06/05 04:23:02;;;;;;;97.30;88.83;;;;;;;13.02;100.00;101654.20;1980548;72;26245;-76
2022/06/05 04:25:32;;;;;;;95.93;88.03;;;;;;;13.15;100.00;101647.52;1980314;72;26285;-76
2022/06/05 04:28:03;;;;;;;103.40;94.33;;;;;;;13.22;100.00;101637.47;1976543;72;26237;-76
2022/06/05 04:30:37;;;;;;;98.33;89.43;;;;;;;13.13;100.00;101648.92;1979852;72;26274;-76
2022/06/05 04:33:08;;;;;;;98.27;90.27;;;;;;;13.14;100.00;101656.99;1980326;72;26742;-77
2022/06/05 04:35:38;;;;;;;96.20;86.73;;;;;;;13.02;100.00;101662.02;1980340;72;26168;-76
2022/06/05 04:38:09;;;;;;;93.33;85.90;;;;;;;13.23;100.00;101662.83;1972228;72;26199;-77
2022/06/05 04:40:39;;;;;;;93.83;86.30;;;;;;;13.09;100.00;101662.55;1989607;72;26273;-77
2022/06/05 04:43:10;;;;;;;101.07;91.70;;;;;;;13.11;100.00;101658.96;1980449;72;26643;-77
2022/06/05 04:45:42;;;;;;;97.67;89.77;;;;;;;13.01;100.00;101664.52;1980393;72;26871;-77
2022/06/05 04:48:13;;;;;;;96.37;88.73;;;;;;;12.97;100.00;101666.75;1974930;72;26206;-76
2022/06/05 04:50:43;;;;;;;92.77;85.20;;;;;;;13.00;100.00;101672.62;1982106;72;26303;-76
2022/06/05 04:53:14;;;;;;;95.17;87.33;;;;;;;12.90;100.00;101672.63;1980412;72;26160;-76
2022/06/05 04:55:45;;;;;;;95.07;86.83;;;;;;;13.02;100.00;101661.17;1972751;72;26286;-76
2022/06/05 04:58:15;;;;;;;89.47;82.50;;;;;;;12.98;100.00;101666.48;1987666;72;26738;-76
2022/06/05 05:00:45;;;;;;;92.97;85.40;;;;;;;13.05;100.00;101657.84;1968309;72;26651;-76
2022/06/05 05:03:16;;;;;;;88.37;81.37;;;;;;;12.96;100.00;101658.97;1980273;72;26747;-76
2022/06/05 05:05:46;;;;;;;92.40;85.30;;;;;;;13.00;100.00;101655.89;1980203;72;26192;-76
2022/06/05 05:11:23;;;;;;;95.17;87.77;;;;;;;12.93;100.00;101659.52;2037485;69;32606;-75
2022/06/05 05:13:55;;;;;;;97.93;90.63;;;;;;;12.93;100.00;101662.86;1945400;73;26172;-75
2022/06/05 05:16:27;;;;;;;94.97;87.80;;;;;;;13.04;100.00;101663.97;1931637;73;26215;-75
2022/06/05 05:18:57;;;;;;;92.97;85.97;;;;;;;12.94;100.00;101664.53;1927116;73;26216;-75
2022/06/05 05:21:28;;;;;;;89.20;82.20;;;;;;;12.91;100.00;101669.30;2013165;70;26748;-75
2022/06/05 05:23:59;;;;;;;91.57;84.57;;;;;;;12.87;100.00;101669.58;2019686;70;26284;-74
2022/06/05 05:26:33;;;;;;;94.20;87.07;;;;;;;12.82;100.00;101675.99;2017397;70;26209;-75
2022/06/05 05:29:04;;;;;;;89.43;82.80;;;;;;;12.95;100.00;101671.23;2015628;70;26219;-75
2022/06/05 05:31:37;;;;;;;95.47;88.37;;;;;;;13.10;100.00;101671.23;2016884;71;26202;-75
2022/06/05 05:34:09;;;;;;;94.97;87.87;;;;;;;12.97;100.00;101670.94;2016879;71;26241;-75
2022/06/05 05:36:40;;;;;;;95.67;88.67;;;;;;;12.88;100.00;101672.65;2020441;70;26642;-75
2022/06/05 05:42:05;;;;;;;92.53;84.83;;;;;;;12.83;100.00;101692.17;2013252;70;26215;-74
2022/06/05 05:44:38;;;;;;;89.10;81.90;;;;;;;12.86;100.00;101680.44;2012405;70;26274;-75
2022/06/05 05:47:11;;;;;;;89.37;82.37;;;;;;;12.93;100.00;101681.82;2004397;70;26726;-75
2022/06/05 05:49:42;;;;;;;98.13;87.63;;;;;;;12.87;100.00;101673.20;1930501;73;26228;-76
2022/06/05 05:52:13;;;;;;;94.60;87.10;;;;;;;12.97;100.00;101671.77;1948491;73;26249;-75
2022/06/05 05:54:47;;;;;;;91.27;84.43;;;;;;;12.91;100.00;101666.50;1937290;73;26208;-75
2022/06/05 05:57:18;;;;;;;93.27;86.17;;;;;;;12.96;100.00;101663.71;1929122;73;26346;-75
2022/06/05 05:59:49;;;;;;;91.10;84.10;;;;;;;13.00;100.00;101662.88;1941619;73;26712;-75
2022/06/05 06:02:22;;;;;;;93.73;86.70;;;;;;;12.97;100.00;101666.75;1933639;73;26279;-75
2022/06/05 06:04:53;;;;;;;90.23;83.23;;;;;;;12.95;100.00;101675.42;1937800;74;26197;-76
2022/06/05 06:07:24;;;;;;;89.10;82.03;;;;;;;12.97;100.00;101676.52;1944742;73;26364;-76
2022/06/05 06:09:54;;;;;;;89.23;82.03;;;;;;;13.04;100.00;101677.92;1934852;72;26671;-74
2022/06/05 06:12:24;;;;;;;89.03;82.03;;;;;;;12.85;100.00;101681.55;1931841;74;26193;-76
2022/06/05 06:14:55;;;;;;;87.60;80.63;;;;;;;12.96;100.00;101695.23;1931746;74;26184;-75
2022/06/05 06:17:25;;;;;;;86.93;79.87;;;;;;;12.89;100.00;101691.87;1931734;74;26180;-75
2022/06/05 06:19:55;;;;;;;89.70;82.30;;;;;;;12.98;100.00;101689.34;1931798;74;26701;-74
2022/06/05 06:25:32;;;;;;;88.83;81.83;;;;;;;13.02;100.00;101693.25;2060484;69;32678;-75
2022/06/05 06:28:02;;;;;;;100.47;92.87;;;;;;;13.07;100.00;101701.06;2008835;70;26319;-76
2022/06/05 06:30:34;;;;;;;95.43;87.37;;;;;;;13.09;100.00;101695.21;1931912;73;26225;-75
2022/06/05 06:33:05;;;;;;;101.43;93.77;;;;;;;13.03;100.00;101696.33;2003865;70;26195;-73
2022/06/05 06:35:38;;;;;;;98.03;90.00;;;;;;;13.05;100.00;101698.28;2019555;70;26218;-74
2022/06/05 06:38:09;;;;;;;97.77;90.17;;;;;;;12.96;100.00;101706.38;2017390;70;26312;-75
2022/06/05 06:40:40;;;;;;;98.37;90.97;;;;;;;13.08;100.00;101700.50;1939823;73;26683;-74
2022/06/05 06:43:12;;;;;;;101.17;93.47;;;;;;;13.13;100.00;101680.45;1937770;73;26220;-74
2022/06/05 06:45:43;;;;;;;97.77;89.87;;;;;;;13.20;100.00;101672.61;1947101;73;26291;-75
2022/06/05 06:48:13;;;;;;;97.30;89.40;;;;;;;13.20;100.00;101677.35;1937880;74;26215;-75
2022/06/05 06:50:45;;;;;;;97.27;88.87;;;;;;;13.13;100.00;101681.01;1966387;72;26269;-74
2022/06/05 06:53:15;;;;;;;95.17;87.67;;;;;;;13.18;100.00;101683.76;1937451;73;26662;-75
2022/06/05 06:55:45;;;;;;;89.80;82.27;;;;;;;13.15;100.00;101688.52;1969647;72;26263;-74
2022/06/05 06:58:16;;;;;;;87.40;80.10;;;;;;;13.15;100.00;101692.14;1941626;73;26825;-73
2022/06/05 07:00:46;;;;;;;89.30;81.63;;;;;;;13.15;100.00;101704.70;1966438;72;26288;-74
2022/06/05 07:03:17;;;;;;;94.37;86.80;;;;;;;13.15;100.00;101698.28;1937574;73;26703;-74
2022/06/05 07:05:47;;;;;;;97.17;89.63;;;;;;;12.98;100.00;101699.95;1967567;72;26210;-75
2022/06/05 07:08:17;;;;;;;97.63;89.97;;;;;;;13.06;100.00;101699.94;1937740;73;26650;-73
2022/06/05 07:10:47;;;;;;;88.37;81.00;;;;;;;13.07;100.00;101703.84;1936350;73;26302;-75
2022/06/05 07:13:18;;;;;;;90.53;83.30;;;;;;;13.04;100.00;101704.42;1900982;74;26682;-74
2022/06/05 07:15:48;;;;;;;95.77;88.13;;;;;;;13.11;100.00;101692.98;1938902;73;26227;-75
2022/06/05 07:21:28;;;;;;;94.00;86.53;;;;;;;13.15;100.00;101687.13;2061020;69;32663;-76
2022/06/05 07:24:00;;;;;;;86.83;79.83;;;;;;;13.25;100.00;101687.11;1942200;73;26204;-76
2022/06/05 07:26:32;;;;;;;85.40;77.80;;;;;;;13.27;100.00;101683.46;1932980;73;26285;-76
2022/06/05 07:29:04;;;;;;;86.53;79.13;;;;;;;13.17;100.00;101680.72;1932914;73;26645;-75
2022/06/05 07:31:35;;;;;;;90.43;83.07;;;;;;;13.17;100.00;101683.51;1934730;73;26208;-75
2022/06/05 07:34:08;;;;;;;87.57;80.33;;;;;;;13.25;100.00;101685.72;1939788;73;26215;-77
2022/06/05 07:36:41;;;;;;;89.93;82.53;;;;;;;13.18;100.00;101685.99;1976996;72;26247;-75
2022/06/05 07:39:12;;;;;;;90.00;82.47;;;;;;;13.36;100.00;101686.51;1948163;73;26207;-76
2022/06/05 07:41:42;;;;;;;88.17;81.00;;;;;;;13.26;100.00;101672.05;1943813;73;26759;-80
2022/06/05 07:44:12;;;;;;;91.77;84.13;;;;;;;13.34;100.00;101672.86;1937878;74;26275;-76
2022/06/05 07:46:43;;;;;;;83.03;76.00;;;;;;;13.26;100.00;101680.98;1934626;73;26751;-76
2022/06/05 07:49:13;;;;;;;86.77;79.57;;;;;;;13.33;100.00;101679.55;1944618;73;26224;-74
2022/06/05 07:54:37;;;;;;;87.63;80.37;;;;;;;13.42;100.00;101666.69;1937553;73;26282;-71
2022/06/05 07:57:09;;;;;;;82.80;75.57;;;;;;;13.56;100.00;101676.70;1937800;73;26208;-76
2022/06/05 07:59:41;;;;;;;83.33;75.90;;;;;;;13.64;100.00;101668.56;1934435;73;26740;-75
2022/06/05 08:02:14;;;;;;;83.87;76.77;;;;;;;13.62;100.00;101661.02;1937964;74;26205;-77
2022/06/05 08:04:46;;;;;;;82.27;74.83;;;;;;;13.51;100.00;101662.19;1937749;73;26176;-77
2022/06/05 08:07:18;;;;;;;81.57;74.30;;;;;;;13.49;100.00;101664.98;1937520;73;26302;-76
2022/06/05 08:09:49;;;;;;;78.33;71.40;;;;;;;13.61;100.00;101669.11;1937235;73;26196;-76
2022/06/05 08:12:22;;;;;;;87.70;80.43;;;;;;;13.50;100.00;101671.69;1940696;73;26211;-78
2022/06/05 08:14:53;;;;;;;77.67;70.57;;;;;;;13.60;100.00;101675.00;1937561;74;26665;-76
2022/06/05 08:17:26;;;;;;;80.37;73.03;;;;;;;13.60;100.00;101671.66;1932275;74;26297;-77
2022/06/05 08:23:04;;;;;;;82.07;74.43;;;;;;;13.51;100.00;101664.98;2031654;69;32614;-76
2022/06/05 08:25:34;;;;;;;82.37;74.67;;;;;;;13.50;100.00;101673.63;1938628;73;26216;-84
2022/06/05 08:28:05;;;;;;;76.37;68.80;;;;;;;13.41;100.00;101668.36;1931837;73;26310;-85
2022/06/05 08:30:37;;;;;;;79.60;71.87;;;;;;;13.59;100.00;101672.77;1971384;72;26186;-84
2022/06/05 08:33:08;;;;;;;77.07;69.67;;;;;;;13.44;100.00;101670.02;1934872;73;26236;-85
2022/06/05 08:35:39;;;;;;;78.77;70.97;;;;;;;13.42;100.00;101671.44;1937971;74;26247;-76
2022/06/05 08:43:56;;;;;;;79.00;71.47;;;;;;;13.46;100.00;101668.34;1938579;73;26264;-84
2022/06/05 08:46:30;;;;;;;74.33;67.07;;;;;;;13.50;100.00;101668.05;1927057;73;26243;-84
2022/06/05 08:49:04;;;;;;;79.03;71.63;;;;;;;13.49;100.00;101670.00;2005315;70;26287;-76
2022/06/05 08:51:44;;;;;;;75.90;68.60;;;;;;;13.53;100.00;101667.47;2003537;70;26220;-84
2022/06/05 08:54:19;;;;;;;75.37;68.13;;;;;;;13.70;100.00;101663.77;2009757;70;26690;-76
2022/06/05 08:56:53;;;;;;;81.17;73.87;;;;;;;13.54;100.00;101666.36;2017840;70;26277;-75
2022/06/05 08:59:27;;;;;;;75.97;68.87;;;;;;;13.57;100.00;101666.62;2024450;70;26663;-75
2022/06/05 09:05:09;;;;;;;79.83;72.30;;;;;;;13.56;100.00;101655.76;2051998;69;32720;-76
2022/06/05 09:07:42;;;;;;;75.47;68.00;;;;;;;13.59;100.00;101661.60;1987928;71;26784;-78
2022/06/05 09:10:17;;;;;;;76.50;68.97;;;;;;;13.62;100.00;101664.37;1982160;72;26280;-75
2022/06/05 09:12:51;;;;;;;77.13;69.63;;;;;;;13.68;100.00;101665.47;1910359;74;26287;-75
2022/06/05 09:15:25;;;;;;;77.00;69.43;;;;;;;13.67;100.00;101661.00;1891548;75;26845;-78
2022/06/05 09:17:58;;;;;;;79.87;72.03;;;;;;;13.72;100.00;101669.08;1898789;74;26792;-75
2022/06/05 09:20:41;;;;;;;76.20;68.93;;;;;;;13.62;100.00;101660.18;1973780;72;26679;-78
2022/06/05 09:23:16;;;;;;;77.73;70.00;;;;;;;13.76;100.00;101657.61;1910170;74;26728;-72
2022/06/05 09:29:09;;;;;;;79.57;71.37;;;;;;;14.08;100.00;101644.00;2033078;69;32554;-72
2022/06/05 09:32:18;;;;;;;82.77;74.87;;;;;;;13.91;100.00;101653.33;2012295;70;26214;-78
2022/06/05 09:34:53;;;;;;;84.40;76.40;;;;;;;13.82;100.00;101646.11;2012358;70;26199;-77
2022/06/05 09:37:27;;;;;;;79.20;71.93;;;;;;;13.86;100.00;101645.00;1938106;74;26233;-73
2022/06/05 09:40:00;;;;;;;79.67;72.43;;;;;;;13.93;100.00;101640.76;1937357;73;26232;-72
2022/06/05 09:46:14;;;;;;;83.90;76.60;;;;;;;13.88;100.00;101629.61;2060864;69;32628;-77
2022/06/05 09:48:50;;;;;;;78.00;70.80;;;;;;;13.86;100.00;101636.63;2019829;70;26151;-74
2022/06/05 09:51:21;;;;;;;80.10;72.80;;;;;;;14.10;100.00;101641.77;1927995;73;26252;-73
2022/06/05 09:53:56;;;;;;;80.07;72.27;;;;;;;14.13;100.00;101639.22;2013998;71;26279;-78
2022/06/05 09:58:24;;;;;;;85.90;77.67;;;;;;;13.96;100.00;101636.54;2013996;70;26677;-73
2022/06/05 09:59:17;;;;;;;81.73;73.40;;;;;;;13.82;100.00;101638.33;2013267;70;26250;-78
2022/06/05 10:01:53;;;;;;;80.00;72.43;;;;;;;13.92;100.00;101643.27;2016780;70;26195;-77
2022/06/05 10:04:26;;;;;;;81.90;74.00;;;;;;;13.97;100.00;101643.80;1929656;73;26308;-78
2022/06/05 10:07:03;;;;;;;87.10;78.93;;;;;;;13.77;100.00;101646.16;1954651;73;26211;-73
2022/06/05 10:09:38;;;;;;;96.67;88.73;;;;;;;14.01;100.00;101641.55;1938846;73;26196;-73
2022/06/05 10:12:14;;;;;;;91.83;83.77;;;;;;;14.02;100.00;101649.36;1934479;73;26228;-78
2022/06/05 10:14:50;;;;;;;92.67;84.83;;;;;;;13.91;100.00;101645.78;1931015;74;26207;-72
2022/06/05 10:17:43;;;;;;;93.03;85.23;;;;;;;14.00;100.00;101648.25;1932144;74;26293;-78
2022/06/05 10:20:56;;;;;;;90.23;82.83;;;;;;;13.88;100.00;101645.53;1899808;74;26655;-73
2022/06/05 10:23:36;;;;;;;93.33;85.43;;;;;;;13.89;100.00;101645.81;1974066;72;26240;-74
2022/06/05 10:26:17;;;;;;;101.73;93.60;;;;;;;14.01;100.00;101637.91;1978525;72;26693;-74
2022/06/05 10:28:49;;;;;;;91.00;83.00;;;;;;;14.34;100.00;101628.72;1990433;72;26356;-72
2022/06/05 10:31:30;;;;;;;97.20;88.90;;;;;;;14.37;100.00;101632.39;1917465;74;26746;-72
2022/06/05 10:34:08;;;;;;;93.23;85.23;;;;;;;14.27;100.00;101629.63;1914252;74;26225;-74
2022/06/05 10:36:53;;;;;;;103.20;94.77;;;;;;;14.44;100.00;101628.69;1985062;72;26209;-72
2022/06/05 10:39:28;;;;;;;92.43;84.67;;;;;;;14.45;100.00;101630.92;1976643;72;26189;-71
2022/06/05 10:42:18;;;;;;;109.93;101.43;;;;;;;14.43;100.00;101633.16;1898343;74;26313;-73
2022/06/05 10:44:54;;;;;;;99.63;91.57;;;;;;;14.58;100.00;101632.48;1899700;74;26231;-73
2022/06/05 10:47:40;;;;;;;108.23;99.87;;;;;;;14.45;100.00;101632.32;1907907;75;26203;-73
2022/06/05 10:50:16;;;;;;;97.97;89.97;;;;;;;14.66;100.00;101632.97;1907798;75;26804;-73
2022/06/05 10:52:52;;;;;;;98.40;90.13;;;;;;;14.66;100.00;101635.77;1908415;75;26212;-73
2022/06/05 10:55:43;;;;;;;97.63;89.43;;;;;;;14.41;100.00;101643.26;1908328;75;26211;-73
2022/06/05 10:58:19;;;;;;;101.20;92.90;;;;;;;14.51;100.00;101640.92;1907733;75;26301;-75
2022/06/05 11:01:13;;;;;;;92.97;85.10;;;;;;;14.64;100.00;101634.66;1907787;75;26729;-72
2022/06/05 11:03:52;;;;;;;112.50;103.73;;;;;;;14.58;100.00;101636.69;1905796;75;26757;-74
2022/06/05 11:06:35;;;;;;;115.00;106.20;;;;;;;14.58;100.00;101635.28;1907838;75;26269;-73
2022/06/05 11:15:48;;;;;;;106.63;97.73;;;;;;;14.43;100.00;101635.39;1942209;73;26212;-75
2022/06/05 11:21:52;;;;;;;103.27;94.53;;;;;;;14.66;100.00;101631.02;2052504;69;32639;-74
2022/06/05 11:24:49;;;;;;;97.70;89.30;;;;;;;14.68;100.00;101634.34;2007854;70;26285;-73
2022/06/05 11:27:30;;;;;;;96.80;88.27;;;;;;;14.66;100.00;101637.17;2012776;70;26211;-74
2022/06/05 11:30:01;;;;;;;104.87;96.27;;;;;;;14.66;100.00;101633.81;2010722;70;26215;-74
2022/06/05 11:33:02;;;;;;;104.60;96.40;;;;;;;14.68;100.00;101643.28;2017866;70;26218;-73
2022/06/05 11:38:54;;;;;;;107.83;99.57;;;;;;;14.65;100.00;101634.94;2053772;69;33074;-73
2022/06/05 11:45:03;;;;;;;108.47;100.63;;;;;;;14.80;100.00;101626.98;2040932;69;33188;-73
2022/06/05 11:54:07;;;;;;;106.83;99.07;;;;;;;14.87;100.00;101623.26;2014323;70;26273;-75
2022/06/05 12:00:22;;;;;;;97.57;89.90;;;;;;;15.07;100.00;101627.23;2051861;69;33169;-74
2022/06/05 12:03:16;;;;;;;105.23;97.13;;;;;;;15.09;100.00;101638.98;2011291;70;26668;-73
2022/06/05 12:05:55;;;;;;;92.53;84.77;;;;;;;15.02;100.00;101640.71;2019033;70;26210;-72
2022/06/05 12:11:53;;;;;;;103.30;95.23;;;;;;;15.21;100.00;101639.40;2060883;69;32596;-72
2022/06/05 12:17:54;;;;;;;113.10;105.07;;;;;;;15.20;100.00;101639.69;2037318;69;32615;-73
2022/06/05 12:20:53;;;;;;;100.87;92.87;;;;;;;15.25;100.00;101646.06;1932191;73;26334;-72
2022/06/05 12:23:26;;;;;;;107.87;99.80;;;;;;;15.29;100.00;101644.91;1938790;73;26208;-72
2022/06/05 12:26:03;;;;;;;101.77;94.13;;;;;;;15.14;100.00;101638.92;1941694;74;26221;-72
2022/06/05 12:28:40;;;;;;;102.67;94.67;;;;;;;15.04;100.00;101648.27;1934576;73;26516;-75
2022/06/05 12:34:30;;;;;;;98.63;90.93;;;;;;;15.20;100.00;101629.89;2042388;69;32698;-76
2022/06/05 12:37:08;;;;;;;102.83;95.03;;;;;;;15.17;100.00;101635.53;1942821;73;26231;-74
2022/06/05 12:39:54;;;;;;;104.37;96.20;;;;;;;15.06;100.00;101645.14;1942283;73;26310;-71
2022/06/05 12:45:34;;;;;;;110.00;101.80;;;;;;;15.09;100.00;101653.53;1977444;72;26240;-72
2022/06/05 12:51:31;;;;;;;115.50;106.87;;;;;;;15.13;100.00;101644.25;2049356;69;32700;-77
2022/06/05 12:54:14;;;;;;;117.70;108.73;;;;;;;15.13;100.00;101651.81;2019160;70;26179;-72
2022/06/05 12:56:53;;;;;;;115.23;106.73;;;;;;;15.15;100.00;101646.17;2017310;71;26287;-75
2022/06/05 12:59:30;;;;;;;121.47;112.40;;;;;;;15.16;100.00;101649.80;2012838;70;26823;-73
2022/06/05 13:02:28;;;;;;;120.53;111.50;;;;;;;15.20;100.00;101640.52;1937897;74;26695;-75
2022/06/05 13:05:21;;;;;;;110.27;101.87;;;;;;;15.30;100.00;101641.81;1967010;72;26675;-73
2022/06/05 13:14:40;;;;;;;113.80;105.20;;;;;;;15.38;100.00;101620.16;2053232;69;33126;-72
2022/06/05 13:17:34;;;;;;;116.10;107.20;;;;;;;15.43;100.00;101629.91;2012876;70;26203;-72
2022/06/05 13:20:15;;;;;;;118.23;109.33;;;;;;;15.44;100.00;101638.58;1934679;73;26224;-74
2022/06/05 13:22:59;;;;;;;116.13;107.43;;;;;;;15.43;100.00;101630.47;1938237;73;26304;-77
2022/06/05 13:25:44;;;;;;;117.47;108.60;;;;;;;15.39;100.00;101634.44;1937848;73;26673;-77
2022/06/05 13:28:27;;;;;;;120.27;111.47;;;;;;;15.45;100.00;101630.98;1966254;73;26202;-76
2022/06/05 13:31:07;;;;;;;124.10;115.27;;;;;;;15.45;100.00;101632.38;1936425;74;26194;-80